Time;durP1;ratioP1;P1;durP2;ratioP2;P2;SDS_P1;SDS_P2;PMS_P1;PMS_P2;Temp;Humidity;BMP_temperature;BMP_pressure;BME280_temperature;BME280_humidity;BME280_pressure;Samples;Min_cycle;Max_cycle;Signal;HPM_P1;HPM_P2
2023/04/26 00:02:11;;;;;;;14.73;2.90;;;6.20;99.90;;;;;;5100606;28;20200;-77
2023/04/26 00:04:38;;;;;;;12.32;2.70;;;6.10;99.90;;;;;;5103441;28;20177;-77
2023/04/26 00:07:04;;;;;;;10.30;2.88;;;6.10;99.90;;;;;;5094790;28;20174;-82
2023/04/26 00:09:30;;;;;;;11.80;2.65;;;6.10;99.90;;;;;;5110712;28;20178;-77
2023/04/26 00:11:56;;;;;;;12.00;2.67;;;6.00;99.90;;;;;;5089635;28;20189;-76
2023/04/26 00:14:22;;;;;;;8.77;2.80;;;6.00;99.90;;;;;;5106805;28;20553;-76
2023/04/26 00:16:48;;;;;;;11.07;2.72;;;6.00;99.90;;;;;;5102742;28;20548;-77
2023/04/26 00:19:14;;;;;;;8.02;2.47;;;5.90;99.90;;;;;;5110184;28;20687;-76
2023/04/26 00:21:40;;;;;;;12.18;2.50;;;5.90;99.90;;;;;;5108628;28;20181;-82
2023/04/26 00:24:07;;;;;;;10.13;3.05;;;5.90;99.90;;;;;;5103867;28;20763;-76
2023/04/26 00:26:33;;;;;;;10.38;2.60;;;5.90;99.90;;;;;;5107999;28;20177;-76
2023/04/26 00:29:03;;;;;;;7.75;2.42;;;5.90;99.90;;;;;;5094239;28;20185;-77
2023/04/26 00:31:29;;;;;;;10.13;2.70;;;5.90;99.90;;;;;;5110111;28;20188;-76
2023/04/26 00:33:55;;;;;;;9.70;2.30;;;5.90;99.90;;;;;;5109980;28;20228;-76
2023/04/26 00:36:21;;;;;;;8.30;2.35;;;5.90;99.90;;;;;;5100880;28;20190;-77
2023/04/26 00:38:47;;;;;;;8.80;2.65;;;5.90;99.90;;;;;;5107711;28;20189;-80
2023/04/26 00:41:13;;;;;;;11.73;2.75;;;5.90;99.90;;;;;;5074436;28;20181;-77
2023/04/26 00:43:39;;;;;;;9.43;2.88;;;5.90;99.90;;;;;;5108087;28;20188;-78
2023/04/26 00:46:08;;;;;;;7.63;2.40;;;5.90;99.90;;;;;;5108564;28;20177;-76
2023/04/26 00:48:36;;;;;;;9.93;2.38;;;5.90;99.90;;;;;;5087944;28;20208;-77
2023/04/26 00:51:03;;;;;;;9.20;2.88;;;5.90;99.90;;;;;;5107704;28;20268;-81
2023/04/26 00:53:30;;;;;;;8.02;2.33;;;5.90;99.90;;;;;;5091768;28;20263;-76
2023/04/26 00:55:57;;;;;;;9.38;2.67;;;5.90;99.90;;;;;;5104709;28;20185;-79
2023/04/26 00:58:23;;;;;;;9.57;2.58;;;5.90;99.90;;;;;;5102302;28;20268;-76
2023/04/26 01:00:50;;;;;;;7.03;2.40;;;5.90;99.90;;;;;;5091733;28;20208;-76
2023/04/26 01:03:16;;;;;;;10.65;2.75;;;5.90;99.90;;;;;;5090464;28;20186;-77
2023/04/26 01:05:42;;;;;;;8.00;2.25;;;5.90;99.90;;;;;;5107049;28;22631;-84
2023/04/26 01:08:09;;;;;;;11.07;2.65;;;5.90;99.90;;;;;;5104794;28;20231;-77
2023/04/26 01:10:35;;;;;;;9.73;2.50;;;5.90;99.90;;;;;;5106966;28;20215;-77
2023/04/26 01:13:02;;;;;;;12.45;2.50;;;5.90;99.90;;;;;;5103653;28;20236;-76
2023/04/26 01:15:29;;;;;;;11.57;2.80;;;5.90;99.90;;;;;;5107099;28;20185;-77
2023/04/26 01:17:56;;;;;;;9.85;2.50;;;5.90;99.90;;;;;;5106908;28;20228;-78
2023/04/26 01:20:23;;;;;;;12.10;2.75;;;5.90;99.90;;;;;;5107854;28;20185;-81
2023/04/26 01:22:49;;;;;;;11.85;3.13;;;5.80;99.90;;;;;;5101539;28;20194;-77
2023/04/26 01:25:16;;;;;;;11.57;2.72;;;5.90;99.90;;;;;;5113393;28;20181;-76
2023/04/26 01:27:42;;;;;;;9.93;2.80;;;5.90;99.90;;;;;;5107721;28;20222;-77
2023/04/26 01:30:08;;;;;;;11.50;2.72;;;5.80;99.90;;;;;;5110097;28;20264;-78
2023/04/26 01:32:34;;;;;;;10.93;3.17;;;5.80;99.90;;;;;;5105062;28;20233;-78
2023/04/26 01:35:00;;;;;;;11.07;2.72;;;5.80;99.90;;;;;;5097476;28;20205;-77
2023/04/26 01:37:26;;;;;;;10.93;2.80;;;5.90;99.90;;;;;;5104260;28;20641;-77
2023/04/26 01:39:52;;;;;;;9.10;2.92;;;5.80;99.90;;;;;;5110795;28;20181;-78
2023/04/26 01:42:18;;;;;;;9.95;2.72;;;5.80;99.90;;;;;;5110755;28;20656;-81
2023/04/26 01:44:44;;;;;;;10.75;3.00;;;5.80;99.90;;;;;;5110440;28;20207;-77
2023/04/26 01:47:10;;;;;;;9.15;2.97;;;5.80;99.90;;;;;;5093501;28;20557;-77
2023/04/26 01:49:36;;;;;;;10.65;3.05;;;5.80;99.90;;;;;;5113383;28;20177;-77
2023/04/26 01:52:02;;;;;;;13.32;3.08;;;5.80;99.90;;;;;;5091692;28;20304;-78
2023/04/26 01:54:29;;;;;;;11.38;3.17;;;5.80;99.90;;;;;;5107521;28;20212;-77
2023/04/26 01:56:55;;;;;;;10.68;2.70;;;5.80;99.90;;;;;;5111147;28;20185;-77
2023/04/26 01:59:21;;;;;;;10.98;2.70;;;5.80;99.90;;;;;;5094605;28;20594;-78
2023/04/26 02:01:46;;;;;;;10.30;2.75;;;5.80;99.90;;;;;;5104611;28;20196;-77
2023/04/26 02:04:12;;;;;;;11.20;3.15;;;5.70;99.90;;;;;;5109279;28;20714;-77
2023/04/26 02:06:38;;;;;;;10.43;2.60;;;5.70;99.90;;;;;;5110680;28;20189;-77
2023/04/26 02:09:04;;;;;;;12.88;2.92;;;5.80;99.90;;;;;;5106703;28;20547;-77
2023/04/26 02:11:30;;;;;;;9.98;3.03;;;5.70;99.90;;;;;;5112223;28;20185;-77
2023/04/26 02:13:57;;;;;;;12.13;3.05;;;5.70;99.90;;;;;;5106726;28;20201;-77
2023/04/26 02:16:22;;;;;;;12.65;2.90;;;5.70;99.90;;;;;;5109711;28;20677;-78
2023/04/26 02:18:48;;;;;;;9.15;2.80;;;5.70;99.90;;;;;;5109918;28;20231;-76
2023/04/26 02:21:17;;;;;;;8.52;2.47;;;5.70;99.90;;;;;;5113099;28;20625;-77
2023/04/26 02:23:43;;;;;;;15.35;2.97;;;5.70;99.90;;;;;;5113950;28;20181;-76
2023/04/26 02:26:10;;;;;;;10.02;2.47;;;5.70;99.90;;;;;;5112098;28;20192;-77
2023/04/26 02:28:36;;;;;;;7.05;2.88;;;5.70;99.90;;;;;;5114078;28;20181;-76
2023/04/26 02:31:02;;;;;;;11.20;2.60;;;5.70;99.90;;;;;;5101783;28;20238;-76
2023/04/26 02:33:29;;;;;;;9.98;2.53;;;5.70;99.90;;;;;;5114594;28;20220;-77
2023/04/26 02:35:56;;;;;;;8.80;2.45;;;5.70;99.90;;;;;;5113521;28;20272;-76
2023/04/26 02:38:25;;;;;;;7.25;2.25;;;5.70;99.90;;;;;;5096974;28;20321;-77
2023/04/26 02:40:58;;;;;;;5.05;1.90;;;5.70;99.90;;;;;;5109547;28;20568;-77
2023/04/26 02:43:23;;;;;;;11.57;2.50;;;5.70;99.90;;;;;;5098857;28;20212;-76
2023/04/26 02:45:49;;;;;;;7.03;2.35;;;5.70;99.90;;;;;;5102845;28;20181;-78
2023/04/26 02:48:15;;;;;;;9.07;2.60;;;5.70;99.90;;;;;;5102396;28;20185;-76
2023/04/26 02:50:41;;;;;;;7.82;2.35;;;5.70;99.90;;;;;;5094900;28;20189;-81
2023/04/26 02:53:07;;;;;;;12.75;2.45;;;5.70;99.90;;;;;;5090421;28;20594;-77
2023/04/26 02:55:33;;;;;;;5.97;2.47;;;5.70;99.90;;;;;;5099466;28;20261;-82
2023/04/26 02:57:59;;;;;;;11.07;2.58;;;5.70;99.90;;;;;;5103399;28;20680;-77
2023/04/26 03:00:26;;;;;;;8.63;2.33;;;5.60;99.90;;;;;;5107829;28;20189;-77
2023/04/26 03:02:52;;;;;;;15.73;3.50;;;5.60;99.90;;;;;;5103840;28;20189;-77
2023/04/26 03:05:18;;;;;;;8.40;2.65;;;5.60;99.90;;;;;;5092458;28;20547;-77
2023/04/26 03:07:45;;;;;;;5.97;2.58;;;5.60;99.90;;;;;;5090313;28;20268;-77
2023/04/26 03:10:11;;;;;;;12.73;2.50;;;5.60;99.90;;;;;;5104536;28;20281;-77
2023/04/26 03:12:38;;;;;;;13.27;2.90;;;5.60;99.90;;;;;;5104915;28;20292;-77
2023/04/26 03:15:05;;;;;;;7.68;2.25;;;5.50;99.90;;;;;;5087822;28;20277;-77
2023/04/26 03:17:30;;;;;;;8.07;2.67;;;5.60;99.90;;;;;;5107364;28;20213;-76
2023/04/26 03:19:57;;;;;;;7.63;2.92;;;5.60;99.90;;;;;;5083563;28;20186;-77
2023/04/26 03:22:23;;;;;;;9.13;2.92;;;5.60;99.90;;;;;;5092082;28;20238;-78
2023/04/26 03:24:48;;;;;;;7.90;2.65;;;5.60;99.90;;;;;;5057267;28;20177;-78
2023/04/26 03:27:14;;;;;;;11.55;2.30;;;5.60;99.90;;;;;;5102647;28;20184;-78
2023/04/26 03:29:40;;;;;;;9.27;2.35;;;5.60;99.90;;;;;;5110734;28;20181;-78
2023/04/26 03:32:06;;;;;;;6.13;2.42;;;5.70;99.90;;;;;;5103177;28;20327;-78
2023/04/26 03:34:32;;;;;;;5.97;2.28;;;5.70;99.90;;;;;;5086647;28;20182;-78
2023/04/26 03:36:58;;;;;;;9.80;2.35;;;5.70;99.90;;;;;;5103887;28;20233;-79
2023/04/26 03:39:24;;;;;;;10.52;2.30;;;5.70;99.90;;;;;;5112186;28;20267;-78
2023/04/26 03:41:50;;;;;;;5.70;2.58;;;5.70;99.90;;;;;;5104192;28;20592;-83
2023/04/26 03:44:15;;;;;;;8.93;2.40;;;5.70;99.90;;;;;;5084623;28;20184;-79
2023/04/26 03:46:42;;;;;;;6.45;2.47;;;5.70;99.90;;;;;;5097333;28;20209;-78
2023/04/26 03:49:08;;;;;;;8.95;2.30;;;5.60;99.90;;;;;;5107255;28;20177;-78
2023/04/26 03:51:34;;;;;;;7.13;2.33;;;5.70;99.90;;;;;;5102394;28;20220;-78
2023/04/26 03:54:00;;;;;;;6.82;2.30;;;5.60;99.90;;;;;;5098223;28;20202;-79
2023/04/26 03:56:26;;;;;;;8.82;2.33;;;5.60;99.90;;;;;;5092120;28;20324;-78
2023/04/26 03:58:52;;;;;;;8.25;2.22;;;5.60;99.90;;;;;;5124918;27;20177;-78
2023/04/26 04:01:19;;;;;;;4.60;2.00;;;5.60;99.90;;;;;;5106724;28;20774;-77
2023/04/26 04:03:45;;;;;;;8.85;2.38;;;5.60;99.90;;;;;;5108237;28;20269;-84
2023/04/26 04:06:11;;;;;;;9.30;2.63;;;5.60;99.90;;;;;;5105316;28;20225;-77
2023/04/26 04:08:37;;;;;;;7.05;2.30;;;5.60;99.90;;;;;;5111799;28;20196;-79
2023/04/26 04:11:04;;;;;;;9.25;2.38;;;5.50;99.90;;;;;;5102703;28;20181;-78
2023/04/26 04:13:32;;;;;;;7.57;2.28;;;5.50;99.90;;;;;;5081193;28;20214;-77
2023/04/26 04:15:58;;;;;;;5.00;1.85;;;5.40;99.90;;;;;;5103505;28;20241;-78
2023/04/26 04:18:25;;;;;;;4.70;2.00;;;5.40;99.90;;;;;;5107790;28;20184;-78
2023/04/26 04:20:51;;;;;;;3.03;1.50;;;5.40;99.90;;;;;;5106728;28;20665;-79
2023/04/26 04:23:17;;;;;;;7.28;2.17;;;5.30;99.90;;;;;;5100714;28;20288;-84
2023/04/26 04:25:44;;;;;;;6.95;2.17;;;5.30;99.90;;;;;;5099740;28;20193;-83
2023/04/26 04:28:11;;;;;;;5.80;2.08;;;5.40;99.90;;;;;;5103296;28;20217;-78
2023/04/26 04:30:37;;;;;;;7.97;2.08;;;5.30;99.90;;;;;;5101222;28;20181;-78
2023/04/26 04:33:04;;;;;;;8.02;2.30;;;5.30;99.90;;;;;;5093360;28;20244;-83
2023/04/26 04:35:32;;;;;;;7.40;2.28;;;5.30;99.90;;;;;;5101993;28;20192;-78
2023/04/26 04:38:02;;;;;;;5.35;2.42;;;5.30;99.90;;;;;;5087362;28;20213;-78
2023/04/26 04:40:29;;;;;;;6.15;2.60;;;5.40;99.90;;;;;;5083376;28;20864;-78
2023/04/26 04:42:55;;;;;;;4.40;2.00;;;5.40;99.90;;;;;;5094084;28;20181;-79
2023/04/26 04:45:23;;;;;;;7.88;2.40;;;5.40;99.90;;;;;;5083972;28;20180;-78
2023/04/26 04:47:55;;;;;;;7.72;2.72;;;5.40;99.90;;;;;;5110575;28;20193;-78
2023/04/26 04:50:22;;;;;;;6.85;2.20;;;5.50;99.90;;;;;;5106305;28;20247;-83
2023/04/26 04:52:48;;;;;;;8.02;2.42;;;5.50;99.90;;;;;;5111594;28;20241;-78
2023/04/26 04:55:14;;;;;;;12.45;2.45;;;5.50;99.90;;;;;;5106650;28;20217;-81
2023/04/26 04:57:41;;;;;;;6.88;2.60;;;5.60;99.90;;;;;;5108328;28;20188;-79
2023/04/26 05:00:14;;;;;;;8.10;2.38;;;5.60;99.90;;;;;;5096412;28;20184;-79
2023/04/26 05:02:48;;;;;;;6.30;2.28;;;5.70;99.90;;;;;;5091897;28;20184;-78
2023/04/26 05:05:15;;;;;;;6.80;2.70;;;5.60;99.90;;;;;;5091533;28;20285;-78
2023/04/26 05:07:41;;;;;;;11.25;2.47;;;5.70;99.90;;;;;;5093633;28;20181;-78
2023/04/26 05:10:08;;;;;;;11.60;2.58;;;5.70;99.90;;;;;;5109854;28;20605;-78
2023/04/26 05:12:35;;;;;;;7.50;2.13;;;5.70;99.90;;;;;;5106118;28;20213;-80
2023/04/26 05:15:01;;;;;;;11.85;2.72;;;5.70;99.90;;;;;;5099765;28;20633;-78
2023/04/26 05:17:29;;;;;;;5.43;2.13;;;5.80;99.90;;;;;;5104052;28;20276;-78
2023/04/26 05:19:55;;;;;;;10.90;2.70;;;5.80;99.90;;;;;;5096049;28;20281;-78
2023/04/26 05:22:21;;;;;;;7.78;2.72;;;5.80;99.90;;;;;;5104249;28;20229;-78
2023/04/26 05:24:47;;;;;;;7.05;2.60;;;5.80;99.90;;;;;;5098722;28;20191;-79
2023/04/26 05:27:14;;;;;;;7.28;2.40;;;5.90;99.90;;;;;;5104565;28;20243;-78
2023/04/26 05:30:00;;;;;;;5.53;2.55;;;5.80;99.90;;;;;;5092185;28;20201;-80
2023/04/26 05:32:56;;;;;;;5.95;2.72;;;5.80;99.90;;;;;;5088898;28;20273;-78
2023/04/26 05:35:34;;;;;;;9.02;2.92;;;5.90;99.90;;;;;;5109106;27;20196;-77
2023/04/26 05:38:00;;;;;;;9.90;2.83;;;5.90;99.90;;;;;;5103529;28;20181;-77
2023/04/26 05:40:26;;;;;;;9.65;3.30;;;5.90;99.90;;;;;;5103260;28;20185;-82
2023/04/26 05:42:52;;;;;;;6.15;3.10;;;5.90;99.90;;;;;;5098533;28;20194;-78
2023/04/26 05:45:18;;;;;;;5.50;2.80;;;5.90;99.90;;;;;;5081807;28;20178;-80
2023/04/26 05:47:46;;;;;;;12.07;3.17;;;5.90;99.90;;;;;;5102838;28;20178;-79
2023/04/26 05:50:13;;;;;;;10.32;2.97;;;6.00;99.90;;;;;;5091235;28;20189;-78
2023/04/26 05:52:38;;;;;;;11.43;2.80;;;6.00;99.90;;;;;;5103435;28;20209;-78
2023/04/26 05:55:06;;;;;;;10.65;2.85;;;6.00;99.90;;;;;;5088215;28;20185;-77
2023/04/26 05:57:31;;;;;;;6.90;2.90;;;6.10;99.90;;;;;;5103929;28;20216;-78
2023/04/26 05:59:57;;;;;;;8.40;2.90;;;6.20;99.90;;;;;;5099454;28;20649;-79
2023/04/26 06:02:24;;;;;;;5.47;2.88;;;6.20;99.90;;;;;;5091952;28;20205;-78
2023/04/26 06:04:50;;;;;;;10.40;3.10;;;6.30;99.90;;;;;;5093696;28;20269;-78
2023/04/26 06:07:17;;;;;;;33.22;12.68;;;6.30;99.90;;;;;;5089249;28;20646;-78
2023/04/26 06:09:46;;;;;;;10.75;3.22;;;6.30;99.90;;;;;;5105611;28;20669;-78
2023/04/26 06:12:11;;;;;;;8.57;3.47;;;6.40;99.90;;;;;;5100253;28;20217;-82
2023/04/26 06:14:40;;;;;;;10.35;3.35;;;6.40;99.90;;;;;;5102605;28;20249;-78
2023/04/26 06:17:11;;;;;;;8.18;2.90;;;6.40;99.90;;;;;;5094401;28;20246;-78
2023/04/26 06:19:37;;;;;;;7.03;2.65;;;6.50;99.90;;;;;;5115934;27;20165;-78
2023/04/26 06:22:03;;;;;;;8.00;2.58;;;6.50;99.90;;;;;;5093556;28;20230;-78
2023/04/26 06:24:29;;;;;;;9.13;3.00;;;6.60;99.90;;;;;;5086727;28;20277;-80
2023/04/26 06:26:55;;;;;;;8.07;2.67;;;6.70;99.90;;;;;;5110483;28;20555;-78
2023/04/26 06:29:21;;;;;;;7.57;2.88;;;6.70;99.90;;;;;;5114150;28;20189;-78
2023/04/26 06:31:47;;;;;;;6.93;3.00;;;6.90;99.90;;;;;;5093619;28;20190;-79
2023/04/26 06:34:13;;;;;;;9.32;3.35;;;6.90;99.90;;;;;;5076991;28;20723;-78
2023/04/26 06:36:39;;;;;;;8.82;2.97;;;7.00;99.90;;;;;;5093968;28;20186;-78
2023/04/26 06:39:05;;;;;;;9.95;3.17;;;7.10;99.90;;;;;;5083626;28;20189;-78
2023/04/26 06:41:32;;;;;;;7.60;2.55;;;7.30;99.90;;;;;;5093641;28;20281;-78
2023/04/26 06:43:58;;;;;;;6.13;2.50;;;7.30;99.90;;;;;;5088476;28;20287;-78
2023/04/26 06:46:29;;;;;;;10.27;2.90;;;7.40;99.90;;;;;;5095028;28;20246;-78
2023/04/26 06:48:55;;;;;;;6.82;2.75;;;7.50;99.90;;;;;;5094971;28;20173;-78
2023/04/26 06:51:21;;;;;;;5.20;2.67;;;7.60;99.90;;;;;;5105812;28;20226;-79
2023/04/26 06:53:48;;;;;;;8.13;2.78;;;7.60;99.90;;;;;;5104950;28;20297;-78
2023/04/26 06:56:14;;;;;;;9.07;2.88;;;7.70;99.90;;;;;;5094583;28;20272;-78
2023/04/26 06:58:56;;;;;;;12.20;3.20;;;7.70;99.90;;;;;;5110480;28;20181;-78
2023/04/26 07:01:22;;;;;;;6.22;2.70;;;7.80;99.90;;;;;;5114942;28;20230;-78
2023/04/26 07:03:48;;;;;;;9.65;2.70;;;7.80;99.90;;;;;;5108046;28;20189;-77
2023/04/26 07:06:13;;;;;;;13.25;3.13;;;7.90;99.90;;;;;;5113656;28;20173;-78
2023/04/26 07:08:39;;;;;;;7.60;2.92;;;7.90;99.90;;;;;;5113708;28;20177;-78
2023/04/26 07:11:12;;;;;;;10.90;2.67;;;7.90;99.90;;;;;;5113070;28;20168;-78
2023/04/26 07:13:37;;;;;;;5.43;2.35;;;7.90;99.90;;;;;;5094282;28;20232;-79
2023/04/26 07:16:03;;;;;;;8.27;2.72;;;7.90;99.90;;;;;;5107302;28;20220;-79
2023/04/26 07:18:30;;;;;;;10.13;2.58;;;7.90;99.90;;;;;;5097419;28;20194;-82
2023/04/26 07:20:56;;;;;;;13.15;2.97;;;7.80;99.90;;;;;;5094733;28;20178;-78
2023/04/26 07:23:22;;;;;;;6.60;3.10;;;7.90;99.90;;;;;;5093979;28;20200;-84
2023/04/26 07:25:48;;;;;;;8.80;3.08;;;7.90;99.90;;;;;;5093140;28;20565;-78
2023/04/26 07:28:14;;;;;;;7.07;2.72;;;7.90;99.90;;;;;;5109822;28;20182;-79
2023/04/26 07:30:40;;;;;;;11.65;2.92;;;8.10;99.90;;;;;;5096212;28;20177;-79
2023/04/26 07:33:06;;;;;;;7.13;2.83;;;8.70;99.90;;;;;;5113908;28;20312;-79
2023/04/26 07:35:34;;;;;;;10.15;2.90;;;9.60;99.90;;;;;;5102977;28;20272;-80
2023/04/26 07:38:00;;;;;;;8.05;3.20;;;10.00;99.90;;;;;;5093876;28;20215;-78
2023/04/26 07:40:28;;;;;;;6.95;3.20;;;10.20;99.90;;;;;;5092421;28;20278;-79
2023/04/26 07:42:54;;;;;;;8.18;2.88;;;10.10;99.90;;;;;;5093011;28;20249;-79
2023/04/26 07:45:20;;;;;;;9.35;3.00;;;10.10;99.90;;;;;;5098187;28;20173;-79
2023/04/26 07:47:46;;;;;;;11.05;3.00;;;10.00;99.90;;;;;;5095900;28;20209;-79
2023/04/26 07:50:12;;;;;;;9.02;2.90;;;10.10;99.90;;;;;;5092283;28;20641;-79
2023/04/26 07:52:38;;;;;;;8.98;2.65;;;10.10;99.90;;;;;;5114272;28;20345;-80
2023/04/26 07:55:04;;;;;;;10.90;2.65;;;10.10;99.90;;;;;;5112883;28;20276;-78
2023/04/26 07:57:30;;;;;;;11.60;2.90;;;10.10;99.90;;;;;;5095504;28;20257;-79
2023/04/26 07:59:57;;;;;;;6.90;2.28;;;10.30;99.90;;;;;;5110485;28;20747;-79
2023/04/26 08:02:22;;;;;;;10.18;3.13;;;10.40;99.90;;;;;;5105114;28;20181;-79
2023/04/26 08:04:54;;;;;;;9.18;2.67;;;10.50;99.90;;;;;;5109452;28;20660;-80
2023/04/26 08:07:20;;;;;;;12.63;2.83;;;10.60;99.90;;;;;;5112616;28;20185;-81
2023/04/26 08:09:47;;;;;;;9.93;2.90;;;10.70;99.90;;;;;;5094511;28;20573;-79
2023/04/26 08:12:14;;;;;;;9.13;2.75;;;10.60;99.90;;;;;;5110287;28;20173;-79
2023/04/26 08:14:39;;;;;;;10.00;2.72;;;10.60;99.90;;;;;;5105304;28;20185;-78
2023/04/26 08:17:08;;;;;;;14.93;2.95;;;10.50;99.90;;;;;;5112348;28;20633;-80
2023/04/26 08:19:35;;;;;;;11.45;3.20;;;10.40;99.90;;;;;;5111194;28;20173;-79
2023/04/26 08:22:01;;;;;;;9.10;2.65;;;10.40;99.90;;;;;;5113302;28;20185;-79
2023/04/26 08:24:27;;;;;;;5.47;3.00;;;10.30;99.90;;;;;;5108866;28;20188;-79
2023/04/26 08:26:53;;;;;;;10.82;3.05;;;10.20;99.90;;;;;;5112269;28;20632;-80
2023/04/26 08:29:19;;;;;;;9.60;2.97;;;10.10;99.90;;;;;;5094334;28;20693;-80
2023/04/26 08:31:45;;;;;;;11.50;2.80;;;10.00;99.90;;;;;;5113283;28;20177;-79
2023/04/26 08:34:12;;;;;;;10.10;2.88;;;9.80;99.90;;;;;;5091781;28;20348;-79
2023/04/26 08:36:41;;;;;;;10.13;2.70;;;9.80;99.90;;;;;;5112123;28;20188;-78
2023/04/26 08:39:07;;;;;;;15.13;3.13;;;9.70;99.90;;;;;;5094215;28;20261;-78
2023/04/26 08:41:42;;;;;;;10.77;3.00;;;9.70;99.90;;;;;;5094596;28;20672;-78
2023/04/26 08:44:08;;;;;;;10.43;2.60;;;9.70;99.90;;;;;;5108976;28;20184;-79
2023/04/26 08:46:54;;;;;;;11.40;3.00;;;9.80;99.90;;;;;;5108527;28;20191;-80
2023/04/26 08:49:41;;;;;;;11.30;3.05;;;9.90;99.90;;;;;;5110784;28;20648;-78
2023/04/26 08:52:12;;;;;;;11.40;2.70;;;10.20;99.90;;;;;;5112348;28;20170;-78
2023/04/26 08:54:39;;;;;;;14.73;2.55;;;10.40;99.90;;;;;;5111375;28;20188;-78
2023/04/26 08:57:07;;;;;;;7.35;2.17;;;10.50;99.90;;;;;;5083534;28;20182;-78
2023/04/26 08:59:35;;;;;;;7.47;2.30;;;10.50;99.90;;;;;;5103665;28;20208;-79
2023/04/26 09:02:03;;;;;;;12.55;2.33;;;10.50;99.90;;;;;;5111740;28;20217;-79
2023/04/26 09:04:30;;;;;;;7.72;2.00;;;10.40;99.90;;;;;;5106508;28;20182;-79
2023/04/26 09:07:00;;;;;;;14.82;2.47;;;10.30;99.90;;;;;;5111509;28;20209;-79
2023/04/26 09:09:29;;;;;;;10.13;2.22;;;10.10;99.90;;;;;;5107797;28;20175;-79
2023/04/26 09:11:56;;;;;;;10.63;2.70;;;10.00;99.90;;;;;;5098102;28;20181;-79
2023/04/26 09:14:23;;;;;;;9.20;2.13;;;10.10;99.90;;;;;;5109520;28;20217;-79
2023/04/26 09:16:49;;;;;;;8.32;2.20;;;10.00;99.90;;;;;;5110490;28;20303;-79
2023/04/26 09:19:15;;;;;;;5.95;2.00;;;10.00;99.90;;;;;;5090298;28;20527;-79
2023/04/26 09:21:46;;;;;;;4.72;2.28;;;10.00;99.90;;;;;;5094846;28;20185;-78
2023/04/26 09:24:12;;;;;;;6.40;2.47;;;9.90;99.90;;;;;;5110451;28;20189;-79
2023/04/26 09:26:38;;;;;;;14.18;2.83;;;9.90;99.90;;;;;;5101384;28;20212;-78
2023/04/26 09:29:24;;;;;;;7.65;2.70;;;9.90;99.90;;;;;;5101397;28;20289;-79
2023/04/26 09:31:50;;;;;;;10.00;2.70;;;9.70;99.90;;;;;;5093676;28;20218;-78
2023/04/26 09:34:16;;;;;;;7.85;3.08;;;9.70;99.90;;;;;;5108773;28;20267;-78
2023/04/26 09:36:55;;;;;;;7.53;3.03;;;9.60;99.90;;;;;;5111230;28;20244;-78
2023/04/26 09:39:39;;;;;;;14.98;3.50;;;9.60;99.90;;;;;;5108191;28;20695;-78
2023/04/26 09:42:10;;;;;;;14.65;3.20;;;9.50;99.90;;;;;;5115765;28;20169;-79
2023/04/26 09:44:36;;;;;;;8.88;3.03;;;9.50;99.90;;;;;;5113913;28;20177;-79
2023/04/26 09:47:02;;;;;;;13.85;3.00;;;9.40;99.90;;;;;;5116172;27;20207;-79
2023/04/26 09:49:43;;;;;;;9.32;2.88;;;9.50;99.90;;;;;;5113412;28;20676;-79
2023/04/26 09:52:09;;;;;;;12.55;2.85;;;9.40;99.90;;;;;;5115903;28;20213;-79
2023/04/26 09:54:46;;;;;;;11.50;3.22;;;9.50;99.90;;;;;;5112201;28;20182;-78
2023/04/26 09:57:15;;;;;;;11.23;2.78;;;9.50;99.90;;;;;;5105424;28;20174;-78
2023/04/26 09:59:46;;;;;;;10.95;2.90;;;9.60;99.90;;;;;;5099267;28;20178;-79
2023/04/26 10:02:22;;;;;;;10.82;2.72;;;9.70;99.90;;;;;;5109728;28;20218;-78
2023/04/26 10:04:50;;;;;;;7.50;2.30;;;9.90;99.90;;;;;;5108330;28;20188;-80
2023/04/26 10:07:18;;;;;;;8.23;2.05;;;10.10;99.90;;;;;;5116187;28;20177;-79
2023/04/26 10:09:45;;;;;;;7.20;2.30;;;10.30;99.90;;;;;;5113635;28;20181;-79
2023/04/26 10:12:13;;;;;;;11.27;2.05;;;10.40;99.90;;;;;;5111591;28;20233;-80
2023/04/26 10:14:40;;;;;;;12.00;2.15;;;10.50;99.90;;;;;;5112793;28;20181;-80
2023/04/26 10:17:06;;;;;;;10.00;1.80;;;10.50;99.90;;;;;;5097604;28;20184;-79
2023/04/26 10:19:34;;;;;;;9.35;2.10;;;10.60;99.90;;;;;;5083372;28;20507;-78
2023/04/26 10:22:07;;;;;;;9.27;2.00;;;10.60;99.90;;;;;;5112128;28;20188;-78
2023/04/26 10:24:36;;;;;;;9.98;2.03;;;10.60;99.90;;;;;;5110178;28;20181;-77
2023/04/26 10:27:03;;;;;;;9.68;1.90;;;10.60;99.90;;;;;;5113039;28;20177;-78
2023/04/26 10:29:54;;;;;;;9.55;2.03;;;10.60;99.90;;;;;;5126382;27;20268;-78
2023/04/26 10:32:20;;;;;;;11.07;2.63;;;10.50;99.90;;;;;;5112547;28;20178;-82
2023/04/26 10:35:12;;;;;;;11.82;2.80;;;10.60;99.90;;;;;;5111202;28;20660;-79
2023/04/26 10:37:58;;;;;;;8.55;2.22;;;10.60;99.90;;;;;;5114652;28;20230;-79
2023/04/26 10:40:26;;;;;;;9.55;2.72;;;10.80;99.90;;;;;;5102276;28;20205;-79
2023/04/26 10:43:10;;;;;;;9.35;2.60;;;10.80;99.90;;;;;;5112859;28;20189;-79
2023/04/26 10:45:38;;;;;;;4.72;1.85;;;10.90;99.90;;;;;;5109023;28;20575;-79
2023/04/26 10:48:16;;;;;;;7.63;2.10;;;10.80;99.90;;;;;;5113066;28;20208;-79
2023/04/26 10:51:00;;;;;;;8.98;2.00;;;10.80;99.90;;;;;;5095893;28;20181;-78
2023/04/26 10:53:27;;;;;;;10.95;1.70;;;10.70;99.90;;;;;;5113787;28;20201;-79
2023/04/26 10:55:53;;;;;;;5.28;1.83;;;10.70;99.90;;;;;;5111829;28;20181;-79
2023/04/26 10:58:33;;;;;;;8.63;1.75;;;10.60;99.90;;;;;;5111079;28;20333;-79
2023/04/26 11:01:05;;;;;;;8.75;1.73;;;10.50;99.90;;;;;;5111324;28;20263;-78
2023/04/26 11:03:31;;;;;;;11.88;1.77;;;10.30;99.90;;;;;;5112476;28;20200;-78
2023/04/26 11:05:57;;;;;;;7.18;1.73;;;10.30;99.90;;;;;;5107132;28;20185;-78
2023/04/26 11:08:34;;;;;;;4.40;1.58;;;10.20;99.90;;;;;;5093318;28;20185;-79
2023/04/26 11:11:07;;;;;;;4.68;1.70;;;10.20;99.90;;;;;;5109127;28;20188;-78
2023/04/26 11:13:37;;;;;;;6.13;1.35;;;10.20;99.90;;;;;;5094740;28;20232;-78
2023/04/26 11:16:06;;;;;;;6.35;1.83;;;10.20;99.90;;;;;;5102854;28;20288;-79
2023/04/26 11:18:32;;;;;;;4.35;1.70;;;10.20;99.90;;;;;;5092449;28;20178;-81
2023/04/26 11:20:59;;;;;;;6.10;2.00;;;10.20;99.90;;;;;;5095242;28;20605;-79
2023/04/26 11:23:28;;;;;;;8.32;2.17;;;10.30;99.90;;;;;;5111349;28;20526;-80
2023/04/26 11:26:12;;;;;;;6.78;1.80;;;10.30;99.90;;;;;;5108645;28;20176;-80
2023/04/26 11:28:38;;;;;;;7.63;1.95;;;10.30;99.90;;;;;;5092808;28;20185;-80
2023/04/26 11:31:06;;;;;;;9.85;2.90;;;10.30;99.90;;;;;;5111063;28;20189;-80
2023/04/26 11:33:35;;;;;;;4.65;1.73;;;10.50;99.90;;;;;;5112673;28;20228;-79
2023/04/26 11:36:01;;;;;;;7.30;2.03;;;10.50;99.90;;;;;;5111302;28;20292;-80
2023/04/26 11:38:28;;;;;;;6.68;2.10;;;10.70;99.90;;;;;;5076218;28;20193;-80
2023/04/26 11:41:03;;;;;;;13.18;2.47;;;10.80;99.90;;;;;;5112483;28;20189;-80
2023/04/26 11:43:38;;;;;;;5.70;1.88;;;11.00;99.90;;;;;;5113557;28;20177;-79
2023/04/26 11:46:06;;;;;;;5.32;1.95;;;11.10;99.90;;;;;;5093505;28;20288;-81
2023/04/26 11:48:36;;;;;;;4.47;1.83;;;11.30;99.90;;;;;;5101988;28;20185;-80
2023/04/26 11:51:04;;;;;;;5.68;2.00;;;11.50;99.90;;;;;;5111589;28;20181;-80
2023/04/26 11:53:37;;;;;;;5.32;2.20;;;11.60;99.90;;;;;;5103576;28;20209;-80
2023/04/26 11:56:17;;;;;;;5.97;1.80;;;11.70;99.90;;;;;;5112333;28;20189;-80
2023/04/26 11:58:47;;;;;;;8.65;1.80;;;11.80;99.70;;;;;;5098691;28;20185;-80
2023/04/26 12:01:23;;;;;;;6.47;1.95;;;11.80;99.60;;;;;;5111929;28;20204;-80
2023/04/26 12:03:54;;;;;;;8.70;2.00;;;11.90;99.50;;;;;;5111580;28;20157;-80
2023/04/26 12:06:40;;;;;;;6.43;1.50;;;11.90;99.30;;;;;;5111467;28;20266;-80
2023/04/26 12:09:07;;;;;;;6.15;1.73;;;12.00;99.20;;;;;;5108809;28;20181;-80
2023/04/26 12:11:33;;;;;;;6.40;1.80;;;12.10;99.00;;;;;;5111864;28;20182;-80
2023/04/26 12:14:00;;;;;;;6.65;2.00;;;12.20;98.80;;;;;;5095749;28;20217;-80
2023/04/26 12:16:26;;;;;;;4.63;1.83;;;12.20;98.30;;;;;;5114354;28;20181;-79
2023/04/26 12:18:53;;;;;;;5.40;1.60;;;12.40;98.00;;;;;;5110440;28;20260;-81
2023/04/26 12:21:19;;;;;;;10.95;2.08;;;12.40;97.80;;;;;;5094397;28;20265;-81
2023/04/26 12:23:48;;;;;;;10.70;1.70;;;12.50;98.10;;;;;;5110789;28;20196;-83
2023/04/26 12:26:14;;;;;;;6.50;1.70;;;12.40;98.50;;;;;;5112083;28;20185;-81
2023/04/26 12:28:40;;;;;;;5.53;1.38;;;12.40;98.70;;;;;;5110883;28;20187;-80
2023/04/26 12:31:07;;;;;;;9.73;1.80;;;12.40;98.50;;;;;;5094380;28;20181;-80
2023/04/26 12:33:33;;;;;;;6.10;1.65;;;12.30;98.40;;;;;;5110086;28;20249;-80
2023/04/26 12:36:25;;;;;;;10.15;1.63;;;12.30;98.40;;;;;;5098085;28;20538;-80
2023/04/26 12:38:51;;;;;;;8.88;1.83;;;12.10;98.30;;;;;;5109041;28;20208;-80
2023/04/26 12:41:17;;;;;;;7.53;2.05;;;11.90;98.60;;;;;;5094807;28;20189;-79
2023/04/26 12:43:42;;;;;;;9.10;2.97;;;11.80;98.70;;;;;;5111773;28;20208;-80
2023/04/26 12:46:08;;;;;;;6.97;2.03;;;11.70;98.80;;;;;;5110105;28;20203;-80
2023/04/26 12:48:34;;;;;;;6.47;1.83;;;11.60;98.90;;;;;;5075881;28;20185;-79
2023/04/26 12:51:01;;;;;;;13.27;2.00;;;11.50;98.80;;;;;;5108103;28;20212;-79
2023/04/26 12:53:26;;;;;;;9.32;1.83;;;11.50;98.90;;;;;;5111997;28;20250;-81
2023/04/26 12:55:52;;;;;;;7.28;1.80;;;11.40;98.80;;;;;;5111614;28;20644;-81